AFR720 EDDH-EKCH
Flight info
| Callsign | AFR720 |
|---|---|
| Flight time | 0h 29m |
| Altitude | 23000 |
| Route | LUGEG3G LUGEG P605 GESKA/N0340F220 Z711 MONAK |
| Aircraft | A20N/M-SDE2E3FGHIRWXY/LB1 |
Departure
| Time | 2026-05-06 16:48 |
|---|---|
| Airport | Hamburg Helmut Schmidt Airport (EDDH) |
Arrival
| Time | 2026-05-06 17:17 |
|---|---|
| Airport | Copenhagen Kastrup Airport (EKCH) |
| Time | Latitude | Longitude | Altitude | Speed | Heading |
|---|---|---|---|---|---|
| 2026-05-06 16:14 | 53.62721 | 9.99410 | 45 ft | 0 kts | 241° |
| 2026-05-06 16:36 | 53.62727 | 9.99427 | 45 ft | 2 kts | 241° |
| 2026-05-06 16:36 | 53.62734 | 9.99451 | 44 ft | 2 kts | 247° |
| 2026-05-06 16:36 | 53.62740 | 9.99477 | 41 ft | 2 kts | 242° |
| 2026-05-06 16:37 | 53.62751 | 9.99496 | 41 ft | 2 kts | 213° |
| 2026-05-06 16:37 | 53.62765 | 9.99509 | 43 ft | 2 kts | 192° |
| 2026-05-06 16:37 | 53.62781 | 9.99507 | 42 ft | 2 kts | 154° |
| 2026-05-06 16:37 | 53.62783 | 9.99505 | 42 ft | 0 kts | 154° |
| 2026-05-06 16:40 | 53.62781 | 9.99507 | 42 ft | 2 kts | 154° |
| 2026-05-06 16:41 | 53.62749 | 9.99535 | 45 ft | 8 kts | 153° |
| 2026-05-06 16:41 | 53.62703 | 9.99577 | 44 ft | 10 kts | 152° |
| 2026-05-06 16:41 | 53.62640 | 9.99667 | 44 ft | 13 kts | 112° |
| 2026-05-06 16:41 | 53.62637 | 9.99687 | 44 ft | 0 kts | 97° |
| 2026-05-06 16:46 | 53.62637 | 9.99690 | 44 ft | 2 kts | 96° |
| 2026-05-06 16:46 | 53.62637 | 9.99739 | 44 ft | 6 kts | 81° |
| 2026-05-06 16:46 | 53.62657 | 9.99825 | 42 ft | 9 kts | 54° |
| 2026-05-06 16:47 | 53.62713 | 9.99872 | 45 ft | 11 kts | 6° |
| 2026-05-06 16:47 | 53.62751 | 9.99877 | 46 ft | 2 kts | 4° |
| 2026-05-06 16:47 | 53.62776 | 9.99880 | 46 ft | 10 kts | 2° |
| 2026-05-06 16:47 | 53.62915 | 9.99876 | 43 ft | 22 kts | 356° |
| 2026-05-06 16:48 | 53.64539 | 9.98237 | 543 ft | 163 kts | 330° |
| 2026-05-06 16:48 | 53.65537 | 9.97294 | 1511 ft | 168 kts | 336° |
| 2026-05-06 16:49 | 53.66594 | 9.96424 | 2520 ft | 175 kts | 338° |
| 2026-05-06 16:49 | 53.67773 | 9.95482 | 3193 ft | 198 kts | 337° |
| 2026-05-06 16:49 | 53.69133 | 9.94708 | 3969 ft | 212 kts | 354° |
| 2026-05-06 16:49 | 53.70659 | 9.94601 | 4343 ft | 221 kts | 2° |
| 2026-05-06 16:50 | 53.72173 | 9.94663 | 4471 ft | 215 kts | 9° |
| 2026-05-06 16:50 | 53.73522 | 9.95634 | 4623 ft | 214 kts | 41° |
| 2026-05-06 16:50 | 53.74375 | 9.97675 | 4891 ft | 217 kts | 64° |
| 2026-05-06 16:50 | 53.74819 | 9.99272 | 5227 ft | 237 kts | 64° |
| 2026-05-06 16:51 | 53.75839 | 10.02853 | 5937 ft | 269 kts | 63° |
| 2026-05-06 16:51 | 53.76672 | 10.05744 | 6450 ft | 276 kts | 63° |
| 2026-05-06 16:51 | 53.77524 | 10.08692 | 6940 ft | 281 kts | 63° |
| 2026-05-06 16:51 | 53.78391 | 10.11692 | 7450 ft | 286 kts | 63° |
| 2026-05-06 16:52 | 53.79273 | 10.14749 | 7958 ft | 297 kts | 63° |
| 2026-05-06 16:52 | 53.80197 | 10.17956 | 8475 ft | 313 kts | 63° |
| 2026-05-06 16:52 | 53.81156 | 10.21297 | 8995 ft | 317 kts | 64° |
| 2026-05-06 16:52 | 53.82126 | 10.24679 | 9540 ft | 321 kts | 64° |
| 2026-05-06 16:53 | 53.83108 | 10.28110 | 10042 ft | 324 kts | 64° |
| 2026-05-06 16:53 | 53.84100 | 10.31579 | 10528 ft | 328 kts | 64° |
| 2026-05-06 16:53 | 53.85092 | 10.35057 | 11017 ft | 330 kts | 64° |
| 2026-05-06 16:53 | 53.86099 | 10.38588 | 11520 ft | 333 kts | 64° |
| 2026-05-06 16:54 | 53.87093 | 10.42084 | 12024 ft | 335 kts | 64° |
| 2026-05-06 16:54 | 53.88117 | 10.45688 | 12543 ft | 339 kts | 64° |
| 2026-05-06 16:54 | 53.89143 | 10.49306 | 13077 ft | 341 kts | 64° |
| 2026-05-06 16:54 | 53.90179 | 10.52962 | 13611 ft | 344 kts | 64° |
| 2026-05-06 16:55 | 53.91220 | 10.56643 | 14091 ft | 358 kts | 64° |
| 2026-05-06 16:55 | 53.92324 | 10.60554 | 14581 ft | 374 kts | 64° |
| 2026-05-06 16:55 | 53.93510 | 10.64590 | 15078 ft | 389 kts | 59° |
| 2026-05-06 16:55 | 53.95028 | 10.68403 | 15577 ft | 401 kts | 50° |
| 2026-05-06 16:56 | 53.96933 | 10.71979 | 16089 ft | 412 kts | 45° |
| 2026-05-06 16:56 | 53.98938 | 10.75589 | 16614 ft | 424 kts | 45° |
| 2026-05-06 16:56 | 54.00952 | 10.79245 | 17127 ft | 434 kts | 45° |
| 2026-05-06 16:56 | 54.03042 | 10.83055 | 17669 ft | 444 kts | 45° |
| 2026-05-06 16:57 | 54.05171 | 10.86945 | 18208 ft | 452 kts | 45° |
| 2026-05-06 16:57 | 54.07336 | 10.90906 | 18683 ft | 460 kts | 45° |
| 2026-05-06 16:57 | 54.09535 | 10.94935 | 19165 ft | 467 kts | 45° |
| 2026-05-06 16:57 | 54.11759 | 10.99016 | 19659 ft | 473 kts | 45° |
| 2026-05-06 16:58 | 54.14014 | 11.03178 | 20156 ft | 479 kts | 45° |
| 2026-05-06 16:58 | 54.21201 | 11.16536 | 21771 ft | 492 kts | 45° |
| 2026-05-06 16:58 | 54.30655 | 11.34255 | 22901 ft | 508 kts | 46° |
| 2026-05-06 16:58 | 54.40781 | 11.53370 | 22902 ft | 509 kts | 45° |
| 2026-05-06 16:59 | 54.51815 | 11.74292 | 22915 ft | 504 kts | 45° |
| 2026-05-06 16:59 | 54.61601 | 11.92526 | 22905 ft | 502 kts | 38° |
| 2026-05-06 16:59 | 54.72897 | 12.06069 | 22926 ft | 498 kts | 30° |
| 2026-05-06 16:59 | 54.78572 | 12.12678 | 22939 ft | 499 kts | 30° |
| 2026-05-06 17:00 | 54.81462 | 12.16044 | 22929 ft | 498 kts | 30° |
| 2026-05-06 17:00 | 54.84301 | 12.19355 | 22621 ft | 492 kts | 30° |
| 2026-05-06 17:00 | 54.87110 | 12.22638 | 22290 ft | 480 kts | 30° |
| 2026-05-06 17:00 | 54.89862 | 12.25857 | 21574 ft | 473 kts | 30° |
| 2026-05-06 17:01 | 54.92648 | 12.28810 | 20778 ft | 464 kts | 22° |
| 2026-05-06 17:01 | 54.95574 | 12.30876 | 19982 ft | 453 kts | 13° |
| 2026-05-06 17:01 | 54.98607 | 12.32052 | 19413 ft | 438 kts | 3° |
| 2026-05-06 17:01 | 55.01572 | 12.32599 | 19205 ft | 418 kts | 1° |
| 2026-05-06 17:02 | 55.04418 | 12.33141 | 18922 ft | 404 kts | 1° |
| 2026-05-06 17:02 | 55.07200 | 12.33677 | 18338 ft | 399 kts | 1° |
| 2026-05-06 17:02 | 55.09937 | 12.34195 | 17685 ft | 396 kts | 1° |
| 2026-05-06 17:02 | 55.12627 | 12.34704 | 17434 ft | 381 kts | 1° |
| 2026-05-06 17:03 | 55.15242 | 12.35197 | 16961 ft | 374 kts | 1° |
| 2026-05-06 17:03 | 55.17835 | 12.35677 | 16319 ft | 373 kts | 1° |
| 2026-05-06 17:03 | 55.20385 | 12.36149 | 15694 ft | 372 kts | 1° |
| 2026-05-06 17:03 | 55.22959 | 12.36626 | 15071 ft | 370 kts | 1° |
| 2026-05-06 17:04 | 55.25505 | 12.37103 | 14454 ft | 362 kts | 1° |
| 2026-05-06 17:04 | 55.27157 | 12.37415 | 14037 ft | 356 kts | 1° |
| 2026-05-06 17:04 | 55.29607 | 12.37875 | 13277 ft | 351 kts | 1° |
| 2026-05-06 17:04 | 55.32812 | 12.38474 | 12229 ft | 345 kts | 2° |
| 2026-05-06 17:05 | 55.34391 | 12.38769 | 11719 ft | 342 kts | 2° |
| 2026-05-06 17:05 | 55.36749 | 12.39211 | 10931 ft | 339 kts | 2° |
| 2026-05-06 17:05 | 55.39094 | 12.39649 | 10050 ft | 339 kts | 2° |
| 2026-05-06 17:05 | 55.42202 | 12.40227 | 8799 ft | 337 kts | 3° |
| 2026-05-06 17:06 | 55.43751 | 12.40515 | 8175 ft | 336 kts | 4° |
| 2026-05-06 17:06 | 55.46008 | 12.41503 | 7308 ft | 335 kts | 24° |
| 2026-05-06 17:06 | 55.47868 | 12.43886 | 6648 ft | 328 kts | 46° |
| 2026-05-06 17:06 | 55.49049 | 12.47266 | 5956 ft | 321 kts | 69° |
| 2026-05-06 17:07 | 55.49600 | 12.50988 | 5257 ft | 312 kts | 69° |
| 2026-05-06 17:07 | 55.50428 | 12.54463 | 4649 ft | 298 kts | 73° |
| 2026-05-06 17:07 | 55.50471 | 12.57994 | 4040 ft | 288 kts | 103° |
| 2026-05-06 17:07 | 55.49493 | 12.60904 | 3723 ft | 272 kts | 133° |
| 2026-05-06 17:08 | 55.47964 | 12.62678 | 3450 ft | 259 kts | 159° |
| 2026-05-06 17:08 | 55.46216 | 12.63001 | 3400 ft | 247 kts | 189° |
| 2026-05-06 17:08 | 55.44665 | 12.61894 | 3185 ft | 239 kts | 219° |
| 2026-05-06 17:08 | 55.43591 | 12.59749 | 2916 ft | 231 kts | 237° |
| 2026-05-06 17:09 | 55.42764 | 12.57442 | 2870 ft | 217 kts | 243° |
| 2026-05-06 17:09 | 55.42042 | 12.55008 | 2865 ft | 226 kts | 245° |
| 2026-05-06 17:09 | 55.41303 | 12.52609 | 2991 ft | 222 kts | 238° |
| 2026-05-06 17:09 | 55.40425 | 12.50448 | 3142 ft | 211 kts | 236° |
| 2026-05-06 17:10 | 55.39554 | 12.48309 | 3250 ft | 216 kts | 236° |
| 2026-05-06 17:10 | 55.38703 | 12.46146 | 3202 ft | 214 kts | 237° |
| 2026-05-06 17:10 | 55.37938 | 12.43949 | 3165 ft | 213 kts | 248° |
| 2026-05-06 17:10 | 55.37700 | 12.41440 | 3115 ft | 209 kts | 280° |
| 2026-05-06 17:11 | 55.38298 | 12.39159 | 3104 ft | 203 kts | 313° |
| 2026-05-06 17:11 | 55.39266 | 12.37399 | 3152 ft | 202 kts | 317° |
| 2026-05-06 17:11 | 55.40316 | 12.35739 | 3184 ft | 202 kts | 326° |
| 2026-05-06 17:11 | 55.41593 | 12.34807 | 3197 ft | 199 kts | 354° |
| 2026-05-06 17:12 | 55.42931 | 12.35186 | 3230 ft | 199 kts | 19° |
| 2026-05-06 17:12 | 55.44178 | 12.36127 | 3266 ft | 185 kts | 25° |
| 2026-05-06 17:12 | 55.45242 | 12.37299 | 3135 ft | 181 kts | 47° |
| 2026-05-06 17:12 | 55.45929 | 12.39150 | 3059 ft | 179 kts | 59° |
| 2026-05-06 17:13 | 55.46545 | 12.40985 | 3196 ft | 177 kts | 50° |
| 2026-05-06 17:13 | 55.47419 | 12.42536 | 3386 ft | 179 kts | 41° |
| 2026-05-06 17:13 | 55.48386 | 12.43954 | 3163 ft | 179 kts | 37° |
| 2026-05-06 17:13 | 55.49367 | 12.45291 | 2713 ft | 176 kts | 38° |
| 2026-05-06 17:14 | 55.50304 | 12.46657 | 2371 ft | 172 kts | 39° |
| 2026-05-06 17:14 | 55.51208 | 12.48020 | 2165 ft | 174 kts | 39° |
| 2026-05-06 17:14 | 55.52093 | 12.49352 | 1932 ft | 157 kts | 39° |
| 2026-05-06 17:14 | 55.52870 | 12.50559 | 1727 ft | 138 kts | 40° |
| 2026-05-06 17:15 | 55.53547 | 12.51648 | 1514 ft | 126 kts | 40° |
| 2026-05-06 17:15 | 55.54191 | 12.52637 | 1320 ft | 122 kts | 38° |
| 2026-05-06 17:15 | 55.54842 | 12.53605 | 1191 ft | 125 kts | 39° |
| 2026-05-06 17:15 | 55.55499 | 12.54616 | 1061 ft | 124 kts | 39° |
| 2026-05-06 17:16 | 55.56173 | 12.55638 | 869 ft | 130 kts | 40° |
| 2026-05-06 17:16 | 55.56859 | 12.56678 | 704 ft | 133 kts | 43° |
| 2026-05-06 17:16 | 55.57568 | 12.57786 | 490 ft | 138 kts | 45° |
| 2026-05-06 17:16 | 55.58292 | 12.58898 | 294 ft | 136 kts | 47° |
| 2026-05-06 17:17 | 55.59005 | 12.60011 | 127 ft | 137 kts | 45° |
| 2026-05-06 17:17 | 55.59696 | 12.61097 | 24 ft | 120 kts | 44° |
| 2026-05-06 17:17 | 55.60169 | 12.61838 | 22 ft | 53 kts | 39° |
| 2026-05-06 17:17 | 55.60449 | 12.62235 | 22 ft | 41 kts | 27° |
| 2026-05-06 17:18 | 55.60672 | 12.62356 | 27 ft | 27 kts | 11° |
| 2026-05-06 17:18 | 55.60710 | 12.62370 | 26 ft | 7 kts | 11° |
| 2026-05-06 17:18 | 55.60797 | 12.62422 | 25 ft | 18 kts | 29° |
| 2026-05-06 17:18 | 55.60913 | 12.62592 | 22 ft | 26 kts | 34° |
| 2026-05-06 17:19 | 55.60958 | 12.62632 | 24 ft | 0 kts | 19° |
| 2026-05-06 17:19 | 55.60957 | 12.62631 | 24 ft | 0 kts | 16° |